createdAt,value
2023-01-02T00:01:35.561Z,8.06
2023-01-02T00:04:38.309Z,8.13
2023-01-02T00:07:41.011Z,8.14
2023-01-02T00:10:45.360Z,8.05
2023-01-02T00:13:47.986Z,7.91
2023-01-02T00:16:51.931Z,7.78
2023-01-02T00:19:54.773Z,7.70
2023-01-02T00:22:57.685Z,7.65
2023-01-02T00:26:00.780Z,7.70
2023-01-02T00:29:03.782Z,7.56
2023-01-02T00:32:07.836Z,7.53
2023-01-02T00:35:10.569Z,7.51
2023-01-02T00:38:13.509Z,7.49
2023-01-02T00:41:16.179Z,7.44
2023-01-02T00:44:18.862Z,7.59
2023-01-02T00:47:22.978Z,7.53
2023-01-02T00:50:25.687Z,7.53
2023-01-02T00:53:28.317Z,7.50
2023-01-02T00:56:30.966Z,7.49
2023-01-02T00:59:34.145Z,7.48
2023-01-02T01:02:38.290Z,7.53
2023-01-02T01:05:41.256Z,7.53
2023-01-02T01:08:43.956Z,7.63
2023-01-02T01:11:46.798Z,7.65
2023-01-02T01:14:49.482Z,7.54
2023-01-02T01:17:53.659Z,7.61
2023-01-02T01:20:56.624Z,7.46
2023-01-02T01:23:59.213Z,7.39
2023-01-02T01:27:01.819Z,7.36
2023-01-02T01:30:05.899Z,7.31
2023-01-02T01:33:11.592Z,7.33
2023-01-02T01:36:16.053Z,7.31
2023-01-02T01:39:18.695Z,7.27
2023-01-02T01:42:21.889Z,7.37
2023-01-02T01:45:24.701Z,7.31
2023-01-02T01:48:28.785Z,7.26
2023-01-02T01:51:35.135Z,7.24
2023-01-02T01:54:41.299Z,7.16
2023-01-02T01:57:48.131Z,7.17
2023-01-02T02:00:51.885Z,7.10
2023-01-02T02:03:56.877Z,7.11
2023-01-02T02:06:59.681Z,7.06
2023-01-02T02:10:06.236Z,7.06
2023-01-02T02:13:08.949Z,7.07
2023-01-02T02:16:21.204Z,7.14
2023-01-02T02:19:52.989Z,7.23
2023-01-02T02:23:28.297Z,7.16
2023-01-02T02:26:52.037Z,7.09
2023-01-02T02:30:18.769Z,7.11
2023-01-02T02:33:35.062Z,7.29
2023-01-02T02:36:41.615Z,7.11
2023-01-02T02:39:57.983Z,7.03
2023-01-02T02:43:11.461Z,6.95
2023-01-02T02:46:21.818Z,6.68
2023-01-02T02:49:36.311Z,6.72
2023-01-02T02:52:45.471Z,6.60
2023-01-02T02:55:50.876Z,6.57
2023-01-02T02:58:55.263Z,6.41
2023-01-02T03:01:59.456Z,6.36
2023-01-02T03:05:05.680Z,6.48
2023-01-02T03:08:13.674Z,6.60
2023-01-02T03:11:16.565Z,6.86
2023-01-02T03:14:24.536Z,6.82
2023-01-02T03:17:34.939Z,6.80
2023-01-02T03:20:41.428Z,6.84
2023-01-02T03:23:46.809Z,6.87
2023-01-02T03:26:54.051Z,6.89
2023-01-02T03:30:02.702Z,6.82
2023-01-02T03:33:11.030Z,6.82
2023-01-02T03:36:17.508Z,6.89
2023-01-02T03:39:24.110Z,6.88
2023-01-02T03:42:30.114Z,6.93
2023-01-02T03:45:37.596Z,6.92
2023-01-02T03:48:49.013Z,6.89
2023-01-02T03:51:51.787Z,6.73
2023-01-02T03:54:56.359Z,6.46
2023-01-02T03:58:09.969Z,6.28
2023-01-02T04:01:18.947Z,6.24
2023-01-02T04:04:32.528Z,6.25
2023-01-02T04:07:41.213Z,6.31
2023-01-02T04:10:47.137Z,6.43
2023-01-02T04:13:55.816Z,6.46
2023-01-02T04:17:01.285Z,6.25
2023-01-02T04:20:10.664Z,6.33
2023-01-02T04:23:21.353Z,6.49
2023-01-02T04:26:28.019Z,6.36
2023-01-02T04:29:31.281Z,6.45
2023-01-02T04:32:38.406Z,6.46
2023-01-02T04:35:42.506Z,6.58
2023-01-02T04:38:46.397Z,6.51
2023-01-02T04:41:49.225Z,6.53
2023-01-02T04:44:51.846Z,6.46
2023-01-02T04:47:54.480Z,6.40
2023-01-02T04:50:58.932Z,6.46
2023-01-02T04:54:01.786Z,6.33
2023-01-02T04:57:04.506Z,6.33
2023-01-02T05:00:08.821Z,6.25
2023-01-02T05:03:12.400Z,6.17
2023-01-02T05:06:16.517Z,6.16
2023-01-02T05:09:19.104Z,6.16
2023-01-02T05:12:21.758Z,6.11
2023-01-02T05:15:25.488Z,6.16
2023-01-02T05:18:28.573Z,6.10
2023-01-02T05:21:51.406Z,6.10
2023-01-02T05:24:54.074Z,6.13
2023-01-02T05:27:56.794Z,6.10
2023-01-02T05:31:01.290Z,6.01
2023-01-02T05:34:04.027Z,6.00
2023-01-02T05:37:08.149Z,6.02
2023-01-02T05:40:11.865Z,5.94
2023-01-02T05:43:15.073Z,5.91
2023-01-02T05:46:19.431Z,5.84
2023-01-02T05:49:22.149Z,5.91
2023-01-02T05:52:26.261Z,5.96
2023-01-02T05:55:28.909Z,5.91
2023-01-02T05:58:33.256Z,5.95
2023-01-02T06:01:36.255Z,5.89
2023-01-02T06:04:39.055Z,5.96
2023-01-02T06:07:43.169Z,5.84
2023-01-02T06:10:49.948Z,5.78
2023-01-02T06:13:53.194Z,5.77
2023-01-02T06:16:55.900Z,5.82
2023-01-02T06:19:58.551Z,5.69
2023-01-02T06:23:02.852Z,5.54
2023-01-02T06:26:08.317Z,5.56
2023-01-02T06:29:11.080Z,5.59
2023-01-02T06:32:13.743Z,5.56
2023-01-02T06:35:16.394Z,5.62
2023-01-02T06:38:20.502Z,5.66
2023-01-02T06:41:23.430Z,5.68
2023-01-02T06:44:26.586Z,5.71
2023-01-02T06:47:29.295Z,5.66
2023-01-02T06:50:35.076Z,5.78
2023-01-02T06:53:41.034Z,5.98
2023-01-02T06:56:43.798Z,6.08
2023-01-02T06:59:46.750Z,5.91
2023-01-02T07:02:49.698Z,5.92
2023-01-02T07:05:53.667Z,5.98
2023-01-02T07:08:57.787Z,6.00
2023-01-02T07:12:00.593Z,5.94
2023-01-02T07:15:04.687Z,5.99
2023-01-02T07:18:07.441Z,6.15
2023-01-02T07:21:11.882Z,6.12
2023-01-02T07:24:16.264Z,6.47
2023-01-02T07:27:18.959Z,6.70
2023-01-02T07:30:22.292Z,7.05
2023-01-02T07:33:25.622Z,7.39
2023-01-02T07:36:28.243Z,7.82
2023-01-02T07:39:32.432Z,7.91
2023-01-02T07:42:35.101Z,8.15
2023-01-02T07:45:37.810Z,8.37
2023-01-02T07:48:40.788Z,8.78
2023-01-02T07:51:43.537Z,9.19
2023-01-02T07:54:47.606Z,9.39
2023-01-02T07:57:50.249Z,9.57
2023-01-02T08:00:58.421Z,9.98
2023-01-02T08:04:04.570Z,10.30
2023-01-02T08:07:07.246Z,10.40
2023-01-02T08:10:12.417Z,10.99
2023-01-02T08:13:15.668Z,11.25
2023-01-02T08:16:20.120Z,11.54
2023-01-02T08:19:22.967Z,12.07
2023-01-02T08:22:25.826Z,12.43
2023-01-02T08:25:29.987Z,12.97
2023-01-02T08:28:33.703Z,13.08
2023-01-02T08:31:41.790Z,13.49
2023-01-02T08:34:46.339Z,13.95
2023-01-02T08:37:50.862Z,14.05
2023-01-02T08:40:59.346Z,14.37
2023-01-02T08:44:02.220Z,14.61
2023-01-02T08:47:05.359Z,14.82
2023-01-02T08:50:08.871Z,15.03
2023-01-02T08:53:12.909Z,15.34
2023-01-02T08:56:22.950Z,15.53
2023-01-02T08:59:26.132Z,15.28
2023-01-02T09:02:29.103Z,15.66
2023-01-02T09:05:32.083Z,15.89
2023-01-02T09:08:34.863Z,15.91
2023-01-02T09:11:44.371Z,14.75
2023-01-02T09:14:47.138Z,14.20
2023-01-02T09:17:49.859Z,13.83
2023-01-02T09:20:52.553Z,13.82
2023-01-02T09:23:55.378Z,13.51
2023-01-02T09:26:59.430Z,13.44
2023-01-02T09:30:02.245Z,13.15
2023-01-02T09:33:05.191Z,13.33
2023-01-02T09:36:10.486Z,13.42
2023-01-02T09:39:13.517Z,13.45
2023-01-02T09:42:18.351Z,13.54
2023-01-02T09:45:22.313Z,13.69
2023-01-02T09:48:30.749Z,14.26
2023-01-02T09:51:35.007Z,14.92
2023-01-02T09:54:39.344Z,15.33
2023-01-02T09:57:50.132Z,15.20
2023-01-02T10:00:54.612Z,15.30
2023-01-02T10:04:07.251Z,15.69
2023-01-02T10:07:15.237Z,16.12
2023-01-02T10:10:26.513Z,15.90
2023-01-02T10:17:00.764Z,15.59
2023-01-02T10:20:06.577Z,15.55
2023-01-02T10:23:13.722Z,15.76
2023-01-02T10:26:18.444Z,16.54
2023-01-02T10:29:27.474Z,16.41
2023-01-02T10:32:33.043Z,16.54
2023-01-02T10:35:41.302Z,17.00
2023-01-02T10:38:44.070Z,17.36
2023-01-02T10:41:50.251Z,18.13
2023-01-02T10:44:54.543Z,18.64
2023-01-02T10:47:57.188Z,18.22
2023-01-02T10:51:05.025Z,18.16
2023-01-02T10:54:09.772Z,18.34
2023-01-02T10:57:20.625Z,18.47
2023-01-02T11:00:30.648Z,17.92
2023-01-02T11:03:34.434Z,17.49
2023-01-02T11:06:50.258Z,17.02
2023-01-02T11:09:55.250Z,16.58
2023-01-02T11:13:02.738Z,16.47
2023-01-02T11:16:07.631Z,16.67
2023-01-02T11:19:20.495Z,16.88
2023-01-02T11:22:35.643Z,17.39
2023-01-02T11:25:40.637Z,18.14
2023-01-02T11:28:43.376Z,19.08
2023-01-02T11:31:57.185Z,19.15
2023-01-02T11:35:02.453Z,20.42
2023-01-02T11:38:12.194Z,20.57
2023-01-02T11:41:47.654Z,20.90
2023-01-02T11:44:57.375Z,19.80
2023-01-02T11:48:04.734Z,20.36
2023-01-02T11:51:17.605Z,21.19
2023-01-02T11:54:25.941Z,21.37
2023-01-02T11:57:36.042Z,22.00
2023-01-02T12:00:42.470Z,22.12
2023-01-02T12:03:46.646Z,22.62
2023-01-02T12:07:20.400Z,22.18
2023-01-02T12:10:42.975Z,21.64
2023-01-02T12:14:07.926Z,21.63
2023-01-02T12:17:19.839Z,21.23
2023-01-02T12:20:41.351Z,21.28
2023-01-02T12:24:20.206Z,21.44
2023-01-02T12:27:30.657Z,22.54
2023-01-02T12:30:36.934Z,21.88
2023-01-02T12:33:50.751Z,20.81
2023-01-02T12:37:07.844Z,20.42
2023-01-02T12:40:36.795Z,19.72
2023-01-02T12:43:59.444Z,18.94
2023-01-02T12:47:22.331Z,18.83
2023-01-02T12:50:59.166Z,17.54
2023-01-02T12:54:32.955Z,17.23
2023-01-02T12:57:40.967Z,17.08
2023-01-02T13:00:56.494Z,16.66
2023-01-02T13:04:12.154Z,16.34
2023-01-02T13:07:21.966Z,16.35
2023-01-02T13:10:30.390Z,16.17
2023-01-02T13:13:36.308Z,15.89
2023-01-02T13:16:41.980Z,16.00
2023-01-02T13:19:51.964Z,15.85
2023-01-02T13:23:05.674Z,15.56
2023-01-02T13:26:13.772Z,15.39
2023-01-02T13:29:22.283Z,15.47
2023-01-02T13:32:30.782Z,15.44
2023-01-02T13:35:37.209Z,15.52
2023-01-02T13:38:40.760Z,15.58
2023-01-02T13:42:09.655Z,15.58
2023-01-02T13:45:15.878Z,15.96
2023-01-02T13:48:26.722Z,16.20
2023-01-02T13:51:32.059Z,16.21
2023-01-02T13:54:36.791Z,15.99
2023-01-02T13:57:40.856Z,15.77
2023-01-02T14:00:53.530Z,15.65
2023-01-02T14:04:34.754Z,15.60
2023-01-02T14:07:48.814Z,15.60
2023-01-02T14:10:58.629Z,15.29
2023-01-02T14:14:10.315Z,15.01
2023-01-02T14:17:23.243Z,14.91
2023-01-02T14:20:28.339Z,14.58
2023-01-02T14:23:37.159Z,14.50
2023-01-02T14:26:42.174Z,14.24
2023-01-02T14:29:53.335Z,14.05
2023-01-02T14:32:58.837Z,13.82
2023-01-02T14:36:06.990Z,13.73
2023-01-02T14:39:19.328Z,13.51
2023-01-02T14:42:50.242Z,13.48
2023-01-02T14:45:59.135Z,13.32
2023-01-02T14:49:24.858Z,13.10
2023-01-02T14:52:34.171Z,12.96
2023-01-02T14:55:42.232Z,12.91
2023-01-02T14:58:47.671Z,12.69
2023-01-02T15:01:56.970Z,12.51
2023-01-02T15:05:06.651Z,12.37
2023-01-02T15:08:13.324Z,12.26
2023-01-02T15:11:37.405Z,12.30
2023-01-02T15:14:41.455Z,12.08
2023-01-02T15:17:47.526Z,11.99
2023-01-02T15:20:53.033Z,11.88
2023-01-02T15:24:00.019Z,11.62
2023-01-02T15:27:13.288Z,11.64
2023-01-02T15:30:26.657Z,11.52
2023-01-02T15:33:32.356Z,11.40
2023-01-02T15:36:38.261Z,11.36
2023-01-02T15:39:44.201Z,11.28
2023-01-02T15:43:06.675Z,11.21
2023-01-02T15:46:10.113Z,11.02
2023-01-02T15:49:15.037Z,11.01
2023-01-02T15:52:23.015Z,10.98
2023-01-02T15:55:28.359Z,10.97
2023-01-02T15:58:32.817Z,10.89
2023-01-02T16:01:44.783Z,10.86
2023-01-02T16:05:06.155Z,10.70
2023-01-02T16:08:08.825Z,10.65
2023-01-02T16:11:15.501Z,10.56
2023-01-02T16:14:22.164Z,10.68
2023-01-02T16:17:28.099Z,10.65
2023-01-02T16:20:33.403Z,10.49
2023-01-02T16:23:38.607Z,10.58
2023-01-02T16:26:42.137Z,10.39
2023-01-02T16:29:44.863Z,10.40
2023-01-02T16:32:48.474Z,10.50
2023-01-02T16:36:00.362Z,10.36
2023-01-02T16:39:04.041Z,10.29
2023-01-02T16:42:24.984Z,10.27
2023-01-02T16:45:28.096Z,10.23
2023-01-02T16:48:32.665Z,10.14
2023-01-02T16:51:36.891Z,10.23
2023-01-02T16:54:39.642Z,10.16
2023-01-02T16:57:42.271Z,10.12
2023-01-02T17:00:45.192Z,9.99
2023-01-02T17:03:48.869Z,9.93
2023-01-02T17:06:55.090Z,9.76
2023-01-02T17:09:57.721Z,9.76
2023-01-02T17:13:01.514Z,9.87
2023-01-02T17:16:06.765Z,9.79
2023-01-02T17:19:09.505Z,9.70
2023-01-02T17:22:13.513Z,9.82
2023-01-02T17:25:16.951Z,9.67
2023-01-02T17:28:19.997Z,9.59
2023-01-02T17:31:26.019Z,9.48
2023-01-02T17:34:37.044Z,9.41
2023-01-02T17:37:41.556Z,9.49
2023-01-02T17:40:45.685Z,9.44
2023-01-02T17:44:02.663Z,9.44
2023-01-02T17:47:38.726Z,9.33
2023-01-02T17:50:32.179Z,9.28
2023-01-02T17:53:36.356Z,9.25
2023-01-02T17:56:39.292Z,9.19
2023-01-02T17:59:43.528Z,9.06
2023-01-02T18:02:46.448Z,9.05
2023-01-02T18:05:49.283Z,9.00
2023-01-02T18:08:55.656Z,8.88
2023-01-02T18:11:58.391Z,8.78
2023-01-02T18:15:03.441Z,8.87
2023-01-02T18:18:13.355Z,8.85
2023-01-02T18:21:19.723Z,8.77
2023-01-02T18:24:27.046Z,8.78
2023-01-02T18:27:32.797Z,8.84
2023-01-02T18:30:35.916Z,8.75
2023-01-02T18:33:38.974Z,8.74
2023-01-02T18:36:41.807Z,8.70
2023-01-02T18:39:45.935Z,8.66
2023-01-02T18:42:51.825Z,8.56
2023-01-02T18:45:57.875Z,8.57
2023-01-02T18:49:12.227Z,8.64
2023-01-02T18:52:25.180Z,8.54
2023-01-02T18:55:33.023Z,8.52
2023-01-02T18:58:43.535Z,8.54
2023-01-02T19:01:50.556Z,8.52
2023-01-02T19:04:55.908Z,8.59
2023-01-02T19:08:13.858Z,8.56
2023-01-02T19:11:39.483Z,8.57
2023-01-02T19:14:44.304Z,8.54
2023-01-02T19:17:47.077Z,8.53
2023-01-02T19:21:01.803Z,8.44
2023-01-02T19:24:15.885Z,8.54
2023-01-02T19:27:29.003Z,8.59
2023-01-02T19:30:38.524Z,8.57
2023-01-02T19:33:43.427Z,8.57
2023-01-02T19:36:46.366Z,8.60
2023-01-02T19:39:51.962Z,8.61
2023-01-02T19:42:56.127Z,8.55
2023-01-02T19:45:59.018Z,8.58
2023-01-02T19:49:02.118Z,8.58
2023-01-02T19:52:06.177Z,8.54
2023-01-02T19:55:12.299Z,8.34
2023-01-02T19:58:16.909Z,8.36
2023-01-02T20:01:21.389Z,8.39
2023-01-02T20:04:24.110Z,8.36
2023-01-02T20:07:27.129Z,8.35
2023-01-02T20:10:30.193Z,8.40
2023-01-02T20:13:34.355Z,8.40
2023-01-02T20:16:37.103Z,8.40
2023-01-02T20:19:40.837Z,8.43
2023-01-02T20:22:44.011Z,8.40
2023-01-02T20:25:47.144Z,8.32
2023-01-02T20:28:51.193Z,8.29
2023-01-02T20:31:54.373Z,8.30
2023-01-02T20:34:57.359Z,8.29
2023-01-02T20:38:00.127Z,8.19
2023-01-02T20:41:03.048Z,8.18
2023-01-02T20:44:08.223Z,8.09
2023-01-02T20:47:12.032Z,8.11
2023-01-02T20:50:15.173Z,8.07
2023-01-02T20:53:18.167Z,7.95
2023-01-02T20:56:21.109Z,7.84
2023-01-02T20:59:25.621Z,7.79
2023-01-02T21:02:28.725Z,7.72
2023-01-02T21:05:31.745Z,7.59
2023-01-02T21:08:36.654Z,7.78
2023-01-02T21:11:40.215Z,7.78
2023-01-02T21:14:44.644Z,7.98
2023-01-02T21:17:47.547Z,8.14
2023-01-02T21:20:53.152Z,8.18
2023-01-02T21:23:56.493Z,8.27
2023-01-02T21:26:59.267Z,8.29
2023-01-02T21:30:04.150Z,8.21
2023-01-02T21:33:08.602Z,8.35
2023-01-02T21:36:11.525Z,8.34
2023-01-02T21:39:14.340Z,8.34
2023-01-02T21:42:17.211Z,8.33
2023-01-02T21:45:21.590Z,8.31
2023-01-02T21:48:24.234Z,8.28
2023-01-02T21:51:32.503Z,8.23
2023-01-02T21:54:36.790Z,8.18
2023-01-02T21:58:11.604Z,8.25
2023-01-02T22:01:03.613Z,8.15
2023-01-02T22:04:06.710Z,8.10
2023-01-02T22:07:31.187Z,7.99
2023-01-02T22:10:37.656Z,8.03
2023-01-02T22:13:40.602Z,8.06
2023-01-02T22:16:45.644Z,7.97
2023-01-02T22:19:48.444Z,7.97
2023-01-02T22:22:51.656Z,7.92
2023-01-02T22:25:54.378Z,7.86
2023-01-02T22:28:58.200Z,7.70
2023-01-02T22:32:03.815Z,7.79
2023-01-02T22:35:08.281Z,7.80
2023-01-02T22:38:10.934Z,7.80
2023-01-02T22:41:13.735Z,7.70
2023-01-02T22:44:21.294Z,7.68
2023-01-02T22:47:28.938Z,7.68
2023-01-02T22:50:42.452Z,7.64
2023-01-02T22:53:46.027Z,7.76
2023-01-02T22:56:48.683Z,7.61
2023-01-02T22:59:51.326Z,7.68
2023-01-02T23:02:57.156Z,7.60
2023-01-02T23:05:59.940Z,7.60
2023-01-02T23:09:02.658Z,7.58
2023-01-02T23:12:05.764Z,7.56
2023-01-02T23:15:12.308Z,7.59
2023-01-02T23:18:34.762Z,7.70
2023-01-02T23:21:38.538Z,7.63
2023-01-02T23:24:41.368Z,7.65
2023-01-02T23:27:44.095Z,7.69
2023-01-02T23:30:47.039Z,7.63
2023-01-02T23:33:51.258Z,7.60
2023-01-02T23:36:55.550Z,7.72
2023-01-02T23:39:58.315Z,7.66
2023-01-02T23:43:02.030Z,7.68
2023-01-02T23:46:04.708Z,7.41
2023-01-02T23:49:10.377Z,7.36
2023-01-02T23:52:12.994Z,7.43
2023-01-02T23:55:15.936Z,7.41
2023-01-02T23:58:19.193Z,7.39
